METAR és
SPECI
METAR LHBP 210200Z 30006KT 9999 FEW035CB BKN041 16/16 Q1014 NOSIG=
METAR LHBP 210130Z VRB03KT 9999 SCT040 15/15 Q1014 NOSIG=
METAR LHBP 210100Z VRB01KT 9999 SCT040 15/15 Q1014 NOSIG=
METAR LHBP 210030Z VRB01KT 9999 FEW042CB SCT051 BKN110 16/15 Q1014 NOSIG=
METAR LHBP 210000Z 32004KT 9999 -SHRA FEW041CB SCT051 BKN067 16/16 Q1014 NOSIG=
METAR LHBP 202330Z 26004KT 9999 SCT041 BKN083 16/15 Q1014 NOSIG=
TAF
TAF LHBP 202300Z 2100/2124 32004KT 9999 BKN040 BKN090 TEMPO 2100/2110 6000 SHRA SCT010 BKN030 BKN060 PROB40 TEMPO 2100/2106 VRB15G25KT 3000 +SHRA TSRA SCT005 BKN015CB BECMG 2106/2109 31012G23KT BECMG 2109/2112 SCT030 SCT100 BECMG 2112/2115 30008KT CAVOK BECMG 2119/2122 VRB02KT=
GAMET
Nincs érvényes távirat! 
FAHU41 LHBM 201100
LHCC GAMET VALID 201200/201800 LHBP-
BUDAPEST FIR BLW FL100
SECN 1
SIGWX: ISOL TSRA
SIG CLD: ISOL TCU CB 2000-3000/XXX FT AGL
SIGMETS APPLICABLE: NIL=
AIRMET
Nincs érvényes távirat! 
WAHU41 LHBM 111600
LHCC AIRMET 01 VALID 111600/111800 LHBP-
LHCC BUDAPEST FIR ISOL TS OBS AT 1555Z E OF E02030
TOP ABV FL100 MOV NE NC=
SIGMET
WSHU31 LHBM 210015
LHCC SIGMET 01 VALID 210015/210245 LHBP-
LHCC BUDAPEST FIR EMBD TS OBS S OF N4700 AND
W OF E01740 AND FCST W OF E01920 TOP FL310-350
MOV NEE NC=
OMSZ: 2014. augusztus 21. 02:12 (00:12  UTC)
[WSHU31]
SIGMET
Vulkáni hamufelhő
Nincs érvényes távirat! 
WVHU31 LHBM 271515 CCA
LHCC SIGMET 03 VALID 271515/271800 LHBP-
LHCC BUDAPEST FIR EXERCISE VOLCEX12/01
CNL VA SIGMET 02 271200/271800
EXERCISE EXERCISE EXERCISE VOLCEX12/01=